Time;durP1;ratioP1;P1;durP2;ratioP2;P2;SDS_P1;SDS_P2;PMS_P1;PMS_P2;Temp;Humidity;BMP_temperature;BMP_pressure;BME280_temperature;BME280_humidity;BME280_pressure;Samples;Min_cycle;Max_cycle;Signal;HPM_P1;HPM_P2
2022/04/07 00:00:36;;;;;;;67.95;8.95;;;;;;;;;;5022224;28;20112;-66
2022/04/07 00:03:01;;;;;;;76.10;10.55;;;;;;;;;;5021678;28;20054;-67
2022/04/07 00:05:27;;;;;;;66.03;9.57;;;;;;;;;;5020266;28;20740;-67
2022/04/07 00:07:54;;;;;;;72.10;9.85;;;;;;;;;;5021634;28;20089;-66
2022/04/07 00:10:22;;;;;;;61.85;9.50;;;;;;;;;;5022414;28;20032;-67
2022/04/07 00:12:48;;;;;;;75.13;10.10;;;;;;;;;;5021653;28;20033;-68
2022/04/07 00:15:14;;;;;;;68.10;9.48;;;;;;;;;;5022171;28;20087;-68
2022/04/07 00:17:39;;;;;;;77.18;10.05;;;;;;;;;;5052590;28;20071;-68
2022/04/07 00:20:05;;;;;;;62.92;9.40;;;;;;;;;;5020783;28;20522;-67
2022/04/07 00:22:34;;;;;;;70.47;10.05;;;;;;;;;;5022339;28;20071;-68
2022/04/07 00:25:02;;;;;;;77.78;12.00;;;;;;;;;;5020548;28;20108;-67
2022/04/07 00:27:27;;;;;;;66.68;9.45;;;;;;;;;;5040879;28;21346;-67
2022/04/07 00:29:53;;;;;;;78.18;11.10;;;;;;;;;;5021508;28;20025;-67
2022/04/07 00:32:18;;;;;;;70.53;9.68;;;;;;;;;;5021090;28;20037;-67
2022/04/07 00:34:46;;;;;;;73.82;11.45;;;;;;;;;;5022107;28;20431;-67
2022/04/07 00:37:11;;;;;;;71.10;9.43;;;;;;;;;;5024943;28;20048;-66
2022/04/07 00:39:39;;;;;;;73.53;9.73;;;;;;;;;;5021225;28;20024;-66
2022/04/07 00:42:04;;;;;;;80.20;10.77;;;;;;;;;;5020633;28;20041;-66
2022/04/07 00:44:30;;;;;;;69.75;9.80;;;;;;;;;;5023564;28;20083;-67
2022/04/07 00:46:55;;;;;;;68.88;10.13;;;;;;;;;;5022287;28;20135;-65
2022/04/07 00:49:21;;;;;;;85.03;12.00;;;;;;;;;;5022782;28;20107;-67
2022/04/07 00:51:49;;;;;;;59.80;9.05;;;;;;;;;;5035230;28;20256;-67
2022/04/07 00:54:14;;;;;;;68.63;9.70;;;;;;;;;;5022237;28;20036;-68
2022/04/07 00:56:43;;;;;;;74.97;11.20;;;;;;;;;;5020840;28;20032;-67
2022/04/07 00:59:14;;;;;;;63.30;9.77;;;;;;;;;;5053158;28;20032;-68
2022/04/07 01:01:40;;;;;;;74.40;9.50;;;;;;;;;;5020863;28;20028;-68
2022/04/07 01:04:05;;;;;;;78.85;9.25;;;;;;;;;;5020474;28;20049;-67
2022/04/07 01:06:31;;;;;;;62.13;10.43;;;;;;;;;;5022098;28;20038;-68
2022/04/07 01:08:59;;;;;;;67.03;9.73;;;;;;;;;;5019904;28;20037;-68
2022/04/07 01:11:26;;;;;;;57.58;9.23;;;;;;;;;;5021823;28;20267;-66
2022/04/07 01:13:52;;;;;;;55.20;8.48;;;;;;;;;;5052753;28;20369;-67
2022/04/07 01:16:19;;;;;;;60.72;9.75;;;;;;;;;;5020294;28;20504;-67
2022/04/07 01:18:48;;;;;;;63.35;9.05;;;;;;;;;;5020068;28;20123;-68
2022/04/07 01:21:17;;;;;;;69.38;10.40;;;;;;;;;;5021557;28;20052;-68
2022/04/07 01:24:03;;;;;;;79.18;11.30;;;;;;;;;;5020664;28;20484;-67
2022/04/07 01:26:39;;;;;;;63.22;9.15;;;;;;;;;;5021110;28;20025;-68
2022/04/07 01:29:07;;;;;;;62.20;9.20;;;;;;;;;;5021946;28;21044;-68
2022/04/07 01:31:32;;;;;;;56.00;8.52;;;;;;;;;;5021410;28;20267;-67
2022/04/07 01:33:59;;;;;;;57.25;8.85;;;;;;;;;;5021659;28;20564;-67
2022/04/07 01:36:26;;;;;;;70.05;10.77;;;;;;;;;;5021313;28;20040;-67
2022/04/07 01:38:54;;;;;;;67.85;9.93;;;;;;;;;;5022247;28;21988;-66
2022/04/07 01:41:20;;;;;;;58.35;9.20;;;;;;;;;;5052432;28;20026;-68
2022/04/07 01:43:47;;;;;;;58.72;9.38;;;;;;;;;;5021798;28;20120;-66
2022/04/07 01:46:15;;;;;;;68.70;10.32;;;;;;;;;;5019222;28;20029;-67
2022/04/07 01:48:44;;;;;;;71.00;10.30;;;;;;;;;;5020525;28;20425;-67
2022/04/07 01:51:11;;;;;;;65.22;10.93;;;;;;;;;;5020199;28;20079;-67
2022/04/07 01:53:37;;;;;;;60.10;8.50;;;;;;;;;;5021393;28;20186;-68
2022/04/07 01:56:03;;;;;;;65.97;10.40;;;;;;;;;;5021342;28;20418;-67
2022/04/07 01:58:28;;;;;;;64.20;9.90;;;;;;;;;;5020059;28;20456;-67
2022/04/07 02:00:54;;;;;;;56.67;9.15;;;;;;;;;;5003345;28;20070;-67
2022/04/07 02:03:23;;;;;;;59.03;8.82;;;;;;;;;;5020867;28;20146;-68
2022/04/07 02:05:48;;;;;;;69.10;11.27;;;;;;;;;;5021041;28;20116;-68
2022/04/07 02:08:14;;;;;;;59.03;10.63;;;;;;;;;;5021424;28;20483;-68
2022/04/07 02:10:39;;;;;;;73.85;9.70;;;;;;;;;;5021227;28;20041;-70
2022/04/07 02:13:04;;;;;;;75.15;10.93;;;;;;;;;;5021637;28;20037;-67
2022/04/07 02:15:33;;;;;;;73.10;12.05;;;;;;;;;;5020094;28;20055;-67
2022/04/07 02:17:59;;;;;;;81.30;11.07;;;;;;;;;;5021351;28;20600;-69
2022/04/07 02:20:25;;;;;;;74.38;11.57;;;;;;;;;;5018903;28;20121;-68
2022/04/07 02:22:52;;;;;;;80.63;12.05;;;;;;;;;;5019623;28;20090;-67
2022/04/07 02:25:21;;;;;;;76.57;11.73;;;;;;;;;;5021641;28;20503;-67
2022/04/07 02:27:50;;;;;;;77.55;10.85;;;;;;;;;;5020143;28;20116;-67
2022/04/07 02:30:15;;;;;;;78.75;11.52;;;;;;;;;;5024284;28;20036;-68
2022/04/07 02:32:43;;;;;;;76.07;12.93;;;;;;;;;;5019505;28;20541;-68
2022/04/07 02:35:09;;;;;;;86.30;11.77;;;;;;;;;;5019984;28;20056;-68
2022/04/07 02:37:34;;;;;;;83.15;12.27;;;;;;;;;;5019776;28;20725;-68
2022/04/07 02:40:00;;;;;;;80.82;11.55;;;;;;;;;;5018790;28;20032;-68
2022/04/07 02:42:26;;;;;;;76.72;11.85;;;;;;;;;;5021266;28;20033;-67
2022/04/07 02:44:52;;;;;;;82.72;12.57;;;;;;;;;;5020700;28;20716;-68
2022/04/07 02:47:17;;;;;;;88.07;12.80;;;;;;;;;;5020180;28;20156;-67
2022/04/07 02:49:43;;;;;;;84.13;13.55;;;;;;;;;;5018951;28;20033;-68
2022/04/07 02:52:12;;;;;;;77.43;12.07;;;;;;;;;;5020072;28;20147;-76
2022/04/07 02:54:37;;;;;;;87.75;12.45;;;;;;;;;;5034651;28;20048;-75
2022/04/07 02:57:05;;;;;;;69.18;11.68;;;;;;;;;;5018310;28;20753;-75
2022/04/07 02:59:34;;;;;;;83.45;13.23;;;;;;;;;;5017329;28;20031;-74
2022/04/07 03:02:00;;;;;;;85.22;12.07;;;;;;;;;;5018479;28;20056;-74
2022/04/07 03:04:25;;;;;;;88.57;12.82;;;;;;;;;;5016691;28;20056;-75
2022/04/07 03:06:52;;;;;;;81.75;13.75;;;;;;;;;;5021593;28;20530;-75
2022/04/07 03:09:19;;;;;;;89.47;12.50;;;;;;;;;;5017545;28;20080;-75
2022/04/07 03:11:46;;;;;;;86.95;13.30;;;;;;;;;;5020130;28;20084;-75
2022/04/07 03:14:11;;;;;;;89.75;12.73;;;;;;;;;;5032703;28;20044;-75
2022/04/07 03:16:37;;;;;;;89.85;12.45;;;;;;;;;;5017577;28;20044;-74
2022/04/07 03:19:05;;;;;;;89.90;12.73;;;;;;;;;;5017199;28;20520;-75
2022/04/07 03:21:36;;;;;;;87.25;12.93;;;;;;;;;;5016381;28;20041;-75
2022/04/07 03:24:01;;;;;;;82.90;12.73;;;;;;;;;;5036458;28;20391;-76
2022/04/07 03:26:27;;;;;;;82.07;12.70;;;;;;;;;;5004335;28;20030;-74
2022/04/07 03:28:52;;;;;;;80.57;11.63;;;;;;;;;;5019976;28;20105;-75
2022/04/07 03:31:21;;;;;;;73.95;11.00;;;;;;;;;;5020090;28;20351;-75
2022/04/07 03:33:46;;;;;;;88.72;12.82;;;;;;;;;;5018572;28;20406;-76
2022/04/07 03:36:12;;;;;;;81.18;12.50;;;;;;;;;;5022646;28;20036;-76
2022/04/07 03:38:38;;;;;;;97.28;14.02;;;;;;;;;;5021582;28;20117;-76
2022/04/07 03:41:03;;;;;;;85.97;12.55;;;;;;;;;;5020926;28;20081;-76
2022/04/07 03:43:31;;;;;;;86.70;11.88;;;;;;;;;;5019164;28;20124;-76
2022/04/07 03:45:56;;;;;;;79.80;12.40;;;;;;;;;;5022449;28;20057;-74
2022/04/07 03:48:22;;;;;;;94.68;13.20;;;;;;;;;;5022921;28;20032;-75
2022/04/07 03:50:48;;;;;;;78.63;11.40;;;;;;;;;;5020026;28;20036;-74
2022/04/07 03:53:13;;;;;;;89.18;12.23;;;;;;;;;;5020717;28;20037;-74
2022/04/07 03:55:39;;;;;;;104.03;13.55;;;;;;;;;;5019919;28;20186;-75
2022/04/07 03:58:04;;;;;;;77.30;10.80;;;;;;;;;;5052753;28;20778;-76
2022/04/07 04:00:30;;;;;;;78.60;11.75;;;;;;;;;;5020997;28;20481;-76
2022/04/07 04:02:56;;;;;;;69.95;10.57;;;;;;;;;;5020651;28;20129;-75
2022/04/07 04:05:21;;;;;;;95.38;11.50;;;;;;;;;;5019870;28;20136;-74
2022/04/07 04:07:47;;;;;;;92.72;9.82;;;;;;;;;;5024421;28;20037;-74
2022/04/07 04:10:12;;;;;;;87.47;8.88;;;;;;;;;;5022604;28;20082;-73
2022/04/07 04:12:40;;;;;;;77.13;9.45;;;;;;;;;;5023426;28;20028;-73
2022/04/07 04:15:05;;;;;;;52.75;5.93;;;;;;;;;;5053449;28;20115;-72
2022/04/07 04:17:31;;;;;;;70.70;8.18;;;;;;;;;;5020147;28;20045;-72
2022/04/07 04:20:02;;;;;;;62.50;7.60;;;;;;;;;;5021792;28;20317;-73
2022/04/07 04:22:30;;;;;;;68.68;8.45;;;;;;;;;;5021935;28;20121;-72
2022/04/07 04:24:55;;;;;;;53.67;5.63;;;;;;;;;;5020871;28;21054;-72
2022/04/07 04:27:21;;;;;;;75.07;6.63;;;;;;;;;;5022025;28;20029;-73
2022/04/07 04:29:47;;;;;;;56.22;5.82;;;;;;;;;;5020559;28;20073;-73
2022/04/07 04:32:12;;;;;;;50.88;5.53;;;;;;;;;;5019537;28;20076;-72
2022/04/07 04:34:38;;;;;;;40.38;4.05;;;;;;;;;;5021928;28;20350;-72
2022/04/07 04:37:03;;;;;;;47.90;5.47;;;;;;;;;;5020959;28;20035;-73
2022/04/07 04:39:29;;;;;;;57.22;4.93;;;;;;;;;;5020891;28;20033;-71
2022/04/07 04:41:55;;;;;;;41.83;4.45;;;;;;;;;;5018929;28;20601;-72
2022/04/07 04:44:21;;;;;;;44.90;5.35;;;;;;;;;;5021968;28;20083;-72
2022/04/07 04:46:46;;;;;;;46.03;4.70;;;;;;;;;;5035997;28;20170;-72
2022/04/07 04:49:11;;;;;;;49.47;5.85;;;;;;;;;;5020136;28;20040;-72
2022/04/07 04:51:37;;;;;;;57.15;5.55;;;;;;;;;;5018979;28;20378;-72
2022/04/07 04:54:04;;;;;;;47.10;5.63;;;;;;;;;;5018199;28;20218;-72
2022/04/07 04:56:30;;;;;;;55.92;6.75;;;;;;;;;;5019720;28;20029;-73
2022/04/07 04:58:57;;;;;;;54.90;6.85;;;;;;;;;;5017733;28;20029;-72
2022/04/07 05:01:22;;;;;;;54.63;5.47;;;;;;;;;;5022274;28;20029;-72
2022/04/07 05:03:50;;;;;;;67.60;6.43;;;;;;;;;;5023771;28;20047;-72
2022/04/07 05:06:18;;;;;;;57.10;5.55;;;;;;;;;;5022141;28;20029;-74
2022/04/07 05:08:44;;;;;;;72.97;7.28;;;;;;;;;;5018858;28;20572;-73
2022/04/07 05:11:10;;;;;;;70.80;8.10;;;;;;;;;;5021030;28;20040;-72
2022/04/07 05:13:35;;;;;;;69.03;7.95;;;;;;;;;;5018882;28;20373;-73
2022/04/07 05:16:01;;;;;;;67.95;6.50;;;;;;;;;;5017372;28;20784;-73
2022/04/07 05:18:28;;;;;;;57.17;5.75;;;;;;;;;;5006479;28;20025;-74
2022/04/07 05:20:53;;;;;;;69.90;7.43;;;;;;;;;;5022692;28;20189;-72
2022/04/07 05:23:19;;;;;;;64.32;8.13;;;;;;;;;;5019828;28;20465;-73
2022/04/07 05:25:47;;;;;;;64.13;7.70;;;;;;;;;;5020796;28;20110;-72
2022/04/07 05:28:12;;;;;;;59.15;6.65;;;;;;;;;;5019953;28;20442;-74
2022/04/07 05:30:37;;;;;;;58.50;5.97;;;;;;;;;;5019221;28;20051;-74
2022/04/07 05:33:03;;;;;;;56.88;5.70;;;;;;;;;;5020703;28;20033;-74
2022/04/07 05:35:29;;;;;;;42.35;4.43;;;;;;;;;;5018928;28;20471;-74
2022/04/07 05:37:59;;;;;;;56.67;6.00;;;;;;;;;;5023492;28;20048;-73
2022/04/07 05:40:24;;;;;;;45.42;5.38;;;;;;;;;;5020128;28;20514;-73
2022/04/07 05:42:50;;;;;;;33.53;4.10;;;;;;;;;;5019769;28;20029;-74
2022/04/07 05:45:17;;;;;;;38.28;3.92;;;;;;;;;;5019619;28;20044;-74
2022/04/07 05:47:43;;;;;;;45.03;4.97;;;;;;;;;;5023078;28;21832;-74
2022/04/07 05:50:09;;;;;;;43.60;5.05;;;;;;;;;;5018858;28;20021;-74
2022/04/07 05:52:34;;;;;;;29.30;4.85;;;;;;;;;;5001123;28;20296;-74
2022/04/07 05:55:00;;;;;;;37.33;5.35;;;;;;;;;;5018144;28;20032;-73
2022/04/07 05:57:26;;;;;;;31.45;4.88;;;;;;;;;;5018027;28;20049;-74
2022/04/07 05:59:51;;;;;;;32.38;4.15;;;;;;;;;;5018400;28;20044;-73
2022/04/07 06:02:19;;;;;;;30.08;4.13;;;;;;;;;;5019017;28;20420;-74
2022/04/07 06:04:44;;;;;;;21.30;3.55;;;;;;;;;;5018768;28;20738;-73
2022/04/07 06:07:10;;;;;;;22.52;2.95;;;;;;;;;;5018309;28;20041;-75
2022/04/07 06:09:35;;;;;;;33.47;5.53;;;;;;;;;;5017841;28;20144;-75
2022/04/07 06:12:01;;;;;;;37.83;4.75;;;;;;;;;;5021921;28;20033;-74
2022/04/07 06:14:27;;;;;;;33.38;4.30;;;;;;;;;;5020766;28;20092;-75
2022/04/07 06:16:52;;;;;;;20.98;3.80;;;;;;;;;;5018735;28;20037;-72
2022/04/07 06:19:18;;;;;;;28.05;4.10;;;;;;;;;;5019135;28;20086;-73
2022/04/07 06:21:44;;;;;;;32.20;3.83;;;;;;;;;;5005600;28;20032;-73
2022/04/07 06:24:09;;;;;;;29.73;3.70;;;;;;;;;;5018744;28;20303;-74
2022/04/07 06:26:35;;;;;;;26.38;4.63;;;;;;;;;;5017434;28;20029;-74
2022/04/07 06:29:00;;;;;;;32.50;4.32;;;;;;;;;;5016847;28;20134;-74
2022/04/07 06:31:26;;;;;;;32.75;3.90;;;;;;;;;;5014826;28;20131;-73
2022/04/07 06:33:52;;;;;;;36.55;4.75;;;;;;;;;;5020565;28;20041;-73
2022/04/07 06:36:17;;;;;;;41.20;5.38;;;;;;;;;;5016238;28;20037;-73
2022/04/07 06:38:46;;;;;;;32.15;5.10;;;;;;;;;;5017330;28;20039;-74
2022/04/07 06:41:12;;;;;;;33.60;5.18;;;;;;;;;;5017127;28;20053;-74
2022/04/07 06:43:38;;;;;;;32.85;4.20;;;;;;;;;;5049297;28;20072;-73
2022/04/07 06:46:03;;;;;;;32.22;4.65;;;;;;;;;;5016831;28;20465;-74
2022/04/07 06:48:29;;;;;;;25.02;3.78;;;;;;;;;;5017478;28;22365;-75
2022/04/07 06:50:54;;;;;;;32.92;4.82;;;;;;;;;;5016621;28;20311;-74
2022/04/07 06:53:19;;;;;;;30.88;5.00;;;;;;;;;;5019339;28;20408;-74
2022/04/07 06:55:45;;;;;;;36.25;4.85;;;;;;;;;;5018751;28;20032;-74
2022/04/07 06:58:11;;;;;;;24.27;4.47;;;;;;;;;;5033395;28;20048;-74
2022/04/07 07:00:44;;;;;;;28.85;4.38;;;;;;;;;;5017230;28;20049;-73
2022/04/07 07:03:10;;;;;;;28.05;4.25;;;;;;;;;;5015481;28;20032;-73
2022/04/07 07:05:36;;;;;;;24.27;3.63;;;;;;;;;;5017771;28;20525;-74
2022/04/07 07:08:12;;;;;;;38.55;5.38;;;;;;;;;;5018756;28;20122;-74
2022/04/07 07:10:38;;;;;;;24.60;3.35;;;;;;;;;;5034812;28;20094;-74
2022/04/07 07:13:06;;;;;;;30.83;4.30;;;;;;;;;;5016126;28;20029;-74
2022/04/07 07:15:34;;;;;;;28.38;4.07;;;;;;;;;;5015872;28;20102;-73
2022/04/07 07:18:02;;;;;;;29.92;5.13;;;;;;;;;;5016461;28;20120;-71
2022/04/07 07:20:27;;;;;;;29.15;3.53;;;;;;;;;;5015997;28;20037;-72
2022/04/07 07:22:53;;;;;;;27.75;4.50;;;;;;;;;;5018238;28;20048;-74
2022/04/07 07:25:19;;;;;;;27.13;3.92;;;;;;;;;;5020087;28;20553;-74
2022/04/07 07:27:45;;;;;;;27.88;4.25;;;;;;;;;;5051516;28;20124;-72
2022/04/07 07:30:11;;;;;;;32.97;4.65;;;;;;;;;;5020434;28;20083;-73
2022/04/07 07:32:39;;;;;;;32.47;4.47;;;;;;;;;;5018269;28;20169;-73
2022/04/07 07:35:05;;;;;;;38.80;4.65;;;;;;;;;;5019535;28;20028;-73
2022/04/07 07:37:31;;;;;;;22.08;3.95;;;;;;;;;;5042983;28;20069;-75
2022/04/07 07:39:56;;;;;;;30.75;4.75;;;;;;;;;;5004596;28;20044;-74
2022/04/07 07:42:22;;;;;;;27.48;4.03;;;;;;;;;;5020328;28;20500;-75
2022/04/07 07:44:48;;;;;;;29.55;3.85;;;;;;;;;;5003957;28;20029;-75
2022/04/07 07:47:13;;;;;;;33.17;4.15;;;;;;;;;;5020565;28;20036;-74
2022/04/07 07:49:38;;;;;;;31.30;4.70;;;;;;;;;;5016900;28;20017;-73
2022/04/07 07:52:04;;;;;;;25.38;5.38;;;;;;;;;;5020577;28;20048;-73
2022/04/07 07:54:29;;;;;;;32.75;5.38;;;;;;;;;;5016609;28;20044;-73
2022/04/07 07:56:55;;;;;;;23.08;3.70;;;;;;;;;;5049767;28;20642;-74
2022/04/07 07:59:23;;;;;;;29.30;4.35;;;;;;;;;;5015034;28;20075;-73
2022/04/07 08:01:49;;;;;;;38.47;5.57;;;;;;;;;;5017841;28;20028;-73
2022/04/07 08:04:15;;;;;;;26.75;4.82;;;;;;;;;;5016382;28;20076;-73
2022/04/07 08:06:43;;;;;;;35.00;4.93;;;;;;;;;;5017884;28;20052;-74
2022/04/07 08:09:10;;;;;;;31.77;5.47;;;;;;;;;;5019301;28;20481;-74
2022/04/07 08:11:35;;;;;;;36.28;5.50;;;;;;;;;;5017099;28;20492;-74
2022/04/07 08:14:01;;;;;;;43.25;6.38;;;;;;;;;;5014809;28;20120;-72
2022/04/07 08:16:29;;;;;;;36.63;4.85;;;;;;;;;;5023266;28;20037;-73
2022/04/07 08:18:55;;;;;;;34.72;4.97;;;;;;;;;;5017348;28;20068;-73
2022/04/07 08:21:22;;;;;;;27.48;4.88;;;;;;;;;;5018016;28;20139;-73
2022/04/07 08:23:48;;;;;;;35.17;5.13;;;;;;;;;;5021313;28;20043;-73
2022/04/07 08:26:15;;;;;;;29.23;5.03;;;;;;;;;;5017236;28;20025;-73
2022/04/07 08:28:41;;;;;;;25.35;4.85;;;;;;;;;;5022484;28;20033;-73
2022/04/07 08:31:09;;;;;;;34.25;5.57;;;;;;;;;;5020624;28;20051;-73
2022/04/07 08:33:36;;;;;;;28.58;4.82;;;;;;;;;;5021615;28;20034;-73
2022/04/07 08:36:02;;;;;;;20.45;4.00;;;;;;;;;;5019024;28;20029;-73
2022/04/07 08:38:27;;;;;;;29.90;4.85;;;;;;;;;;5020516;28;20056;-74
2022/04/07 08:40:54;;;;;;;35.55;5.32;;;;;;;;;;5018308;28;20037;-74
2022/04/07 08:43:20;;;;;;;35.53;5.22;;;;;;;;;;5019071;28;20091;-74
2022/04/07 08:45:47;;;;;;;24.75;4.55;;;;;;;;;;5017607;28;20025;-74
2022/04/07 08:48:12;;;;;;;28.77;5.18;;;;;;;;;;5018474;28;20553;-75
2022/04/07 08:50:44;;;;;;;34.45;5.03;;;;;;;;;;5018556;28;20028;-75
2022/04/07 08:53:10;;;;;;;30.55;5.20;;;;;;;;;;5018052;28;20115;-74
2022/04/07 08:55:36;;;;;;;28.60;4.93;;;;;;;;;;5039042;28;20564;-73
2022/04/07 08:58:02;;;;;;;25.98;4.85;;;;;;;;;;5019079;28;20331;-73
2022/04/07 09:00:28;;;;;;;35.05;5.65;;;;;;;;;;5017425;28;20582;-74
2022/04/07 09:02:53;;;;;;;30.30;4.35;;;;;;;;;;5018762;28;20018;-74
2022/04/07 09:05:26;;;;;;;23.77;4.22;;;;;;;;;;5021910;28;21880;-74
2022/04/07 09:07:51;;;;;;;;;;;;;;;;;;5018619;28;20037;-73
2022/04/07 09:10:21;;;;;;;31.07;4.70;;;;;;;;;;5017812;28;19924;-73
2022/04/07 09:12:46;;;;;;;27.02;4.80;;;;;;;;;;5019983;28;20304;-73
2022/04/07 09:15:12;;;;;;;31.02;4.40;;;;;;;;;;5019456;28;20086;-75
2022/04/07 09:17:56;;;;;;;34.92;6.60;;;;;;;;;;5018901;28;20185;-75
2022/04/07 09:20:22;;;;;;;31.38;5.07;;;;;;;;;;5022904;28;20107;-73
2022/04/07 09:22:58;;;;;;;29.80;5.00;;;;;;;;;;5018467;28;20029;-73
2022/04/07 09:25:23;;;;;;;33.08;5.05;;;;;;;;;;5034048;28;20021;-74
2022/04/07 09:27:49;;;;;;;26.50;5.00;;;;;;;;;;5050630;28;20037;-73
2022/04/07 09:30:17;;;;;;;36.70;5.93;;;;;;;;;;5017047;28;20028;-73
2022/04/07 09:32:44;;;;;;;32.35;6.13;;;;;;;;;;5018029;28;20445;-74
2022/04/07 09:35:11;;;;;;;35.08;6.80;;;;;;;;;;5019285;28;20029;-74
2022/04/07 09:37:38;;;;;;;32.08;6.70;;;;;;;;;;5017948;28;20789;-74
2022/04/07 09:40:07;;;;;;;39.70;6.28;;;;;;;;;;5018183;28;20773;-75
2022/04/07 09:42:33;;;;;;;50.53;6.97;;;;;;;;;;5020855;28;20031;-76
2022/04/07 09:45:00;;;;;;;35.45;6.22;;;;;;;;;;5021324;28;20029;-75
2022/04/07 09:47:49;;;;;;;44.03;6.07;;;;;;;;;;5018139;28;20061;-75
2022/04/07 09:50:20;;;;;;;40.40;6.10;;;;;;;;;;5017675;28;20057;-73
2022/04/07 09:52:59;;;;;;;30.73;5.40;;;;;;;;;;5015403;28;20280;-73
2022/04/07 09:55:27;;;;;;;36.67;6.13;;;;;;;;;;5017091;28;20044;-74
2022/04/07 09:57:55;;;;;;;35.67;7.07;;;;;;;;;;5025490;28;20589;-74
2022/04/07 10:00:20;;;;;;;41.25;6.82;;;;;;;;;;5015899;28;20049;-74
2022/04/07 10:02:46;;;;;;;36.20;6.18;;;;;;;;;;5016921;28;20098;-75
2022/04/07 10:05:12;;;;;;;35.97;6.80;;;;;;;;;;5020102;28;20843;-75
2022/04/07 10:07:38;;;;;;;33.88;5.68;;;;;;;;;;5017582;28;20026;-70
2022/04/07 10:10:03;;;;;;;32.65;5.53;;;;;;;;;;5050314;28;20031;-75
2022/04/07 10:12:30;;;;;;;35.33;5.93;;;;;;;;;;5017538;28;20391;-74
2022/04/07 10:14:55;;;;;;;37.35;6.05;;;;;;;;;;5018134;28;20468;-75
2022/04/07 10:17:22;;;;;;;42.42;7.22;;;;;;;;;;5015698;28;20105;-75
2022/04/07 10:19:51;;;;;;;38.53;6.78;;;;;;;;;;5020222;28;20086;-75
2022/04/07 10:22:19;;;;;;;36.10;5.57;;;;;;;;;;5017386;28;20482;-75
2022/04/07 10:24:46;;;;;;;34.35;5.57;;;;;;;;;;5016911;28;20067;-75
2022/04/07 10:27:18;;;;;;;54.58;7.15;;;;;;;;;;5018385;28;20017;-75
2022/04/07 10:30:00;;;;;;;36.30;6.55;;;;;;;;;;5015270;28;20028;-76
2022/04/07 10:32:36;;;;;;;33.15;6.40;;;;;;;;;;5035389;28;20040;-77
2022/04/07 10:35:02;;;;;;;46.13;6.47;;;;;;;;;;5018363;28;20029;-74
2022/04/07 10:37:30;;;;;;;38.78;6.70;;;;;;;;;;5020158;28;20029;-76
2022/04/07 10:39:56;;;;;;;41.88;6.43;;;;;;;;;;5018266;28;20037;-76
2022/04/07 10:42:39;;;;;;;41.15;6.25;;;;;;;;;;5017609;28;20072;-75
2022/04/07 10:45:05;;;;;;;37.03;5.80;;;;;;;;;;5018183;28;20259;-75
2022/04/07 10:47:32;;;;;;;32.30;5.78;;;;;;;;;;5016816;28;20041;-75
2022/04/07 10:49:58;;;;;;;42.42;6.78;;;;;;;;;;5048483;28;20040;-76
2022/04/07 10:52:27;;;;;;;33.25;5.97;;;;;;;;;;5017337;28;20033;-77
2022/04/07 10:55:11;;;;;;;39.53;5.95;;;;;;;;;;5017968;28;20547;-77
2022/04/07 10:57:56;;;;;;;36.70;6.03;;;;;;;;;;5016774;28;20066;-78
2022/04/07 11:00:37;;;;;;;32.60;6.22;;;;;;;;;;5020004;28;20043;-80
2022/04/07 11:03:12;;;;;;;30.08;5.75;;;;;;;;;;5019410;28;20097;-78
2022/04/07 11:05:55;;;;;;;40.65;6.85;;;;;;;;;;5019429;28;20053;-77
2022/04/07 11:08:21;;;;;;;40.28;6.05;;;;;;;;;;5016056;28;20372;-77
2022/04/07 11:10:48;;;;;;;32.13;5.90;;;;;;;;;;5048193;28;20033;-77
2022/04/07 11:13:14;;;;;;;33.38;5.70;;;;;;;;;;5009269;28;20902;-75
2022/04/07 11:15:42;;;;;;;43.40;6.38;;;;;;;;;;5015657;28;20108;-74
2022/04/07 11:18:18;;;;;;;36.70;5.78;;;;;;;;;;5018549;28;20515;-75
2022/04/07 11:21:06;;;;;;;44.67;6.57;;;;;;;;;;5019573;28;20029;-74
2022/04/07 11:23:42;;;;;;;43.47;6.00;;;;;;;;;;5018540;28;21150;-73
2022/04/07 11:26:09;;;;;;;37.83;6.18;;;;;;;;;;5018334;28;20025;-73
2022/04/07 11:28:37;;;;;;;36.00;6.28;;;;;;;;;;5021240;28;20417;-73
2022/04/07 11:31:04;;;;;;;30.10;5.70;;;;;;;;;;5017929;28;20457;-74
2022/04/07 11:33:36;;;;;;;42.65;6.70;;;;;;;;;;5020821;28;20021;-77
2022/04/07 11:36:02;;;;;;;34.53;6.88;;;;;;;;;;5016993;28;20458;-76
2022/04/07 11:38:29;;;;;;;45.10;7.57;;;;;;;;;;5034127;28;20114;-76
2022/04/07 11:41:04;;;;;;;35.88;6.40;;;;;;;;;;5017401;28;20020;-74
2022/04/07 11:43:30;;;;;;;28.58;6.13;;;;;;;;;;5016837;28;20031;-76
2022/04/07 11:45:56;;;;;;;47.58;7.03;;;;;;;;;;5017790;28;20112;-76
2022/04/07 11:48:24;;;;;;;35.38;5.90;;;;;;;;;;5020361;28;20035;-77
2022/04/07 11:50:50;;;;;;;32.95;6.22;;;;;;;;;;5020466;28;20129;-77
2022/04/07 11:53:19;;;;;;;48.85;7.80;;;;;;;;;;5049004;28;20141;-78
2022/04/07 11:55:44;;;;;;;39.15;6.85;;;;;;;;;;5022010;28;20207;-76
2022/04/07 11:58:10;;;;;;;29.98;5.47;;;;;;;;;;5053821;28;20021;-76
2022/04/07 12:00:36;;;;;;;33.70;5.78;;;;;;;;;;5052149;28;20099;-77
2022/04/07 12:03:05;;;;;;;30.05;5.45;;;;;;;;;;5020155;28;20064;-76
2022/04/07 12:05:30;;;;;;;43.30;7.15;;;;;;;;;;5022152;28;20053;-75
2022/04/07 12:07:56;;;;;;;39.40;6.63;;;;;;;;;;5020307;28;20162;-77
2022/04/07 12:10:22;;;;;;;38.95;7.05;;;;;;;;;;5020577;28;20321;-77
2022/04/07 12:12:48;;;;;;;43.05;6.35;;;;;;;;;;5023645;28;20037;-78
2022/04/07 12:15:17;;;;;;;43.13;7.20;;;;;;;;;;5008597;28;20032;-77
2022/04/07 12:17:58;;;;;;;51.88;7.15;;;;;;;;;;5022366;28;20093;-76
2022/04/07 12:20:24;;;;;;;41.65;6.95;;;;;;;;;;5022185;28;20029;-76
2022/04/07 12:23:03;;;;;;;39.60;6.50;;;;;;;;;;5019780;28;20571;-75
2022/04/07 12:25:30;;;;;;;49.92;7.47;;;;;;;;;;5020885;28;20221;-75
2022/04/07 12:28:09;;;;;;;41.53;6.45;;;;;;;;;;5023647;28;20112;-76
2022/04/07 12:30:48;;;;;;;51.35;7.03;;;;;;;;;;5020529;28;20460;-76
2022/04/07 12:33:32;;;;;;;37.20;5.55;;;;;;;;;;5019862;28;20024;-75
2022/04/07 12:35:58;;;;;;;44.20;6.35;;;;;;;;;;5020487;28;20094;-76
2022/04/07 12:38:23;;;;;;;41.15;6.78;;;;;;;;;;5019902;28;20093;-76
2022/04/07 12:40:49;;;;;;;45.30;6.75;;;;;;;;;;5022620;28;20037;-76
2022/04/07 12:43:15;;;;;;;39.67;7.88;;;;;;;;;;5019615;28;20045;-77
2022/04/07 12:45:56;;;;;;;41.75;6.50;;;;;;;;;;5021438;28;20059;-77
2022/04/07 12:48:24;;;;;;;38.13;6.00;;;;;;;;;;5019882;28;20060;-75
2022/04/07 12:50:52;;;;;;;35.65;5.53;;;;;;;;;;5021077;28;20259;-77
2022/04/07 12:53:27;;;;;;;30.58;5.57;;;;;;;;;;5019782;28;20025;-75
2022/04/07 12:55:52;;;;;;;30.33;5.13;;;;;;;;;;5018242;28;20091;-74
2022/04/07 12:58:25;;;;;;;51.42;7.10;;;;;;;;;;5020072;28;20086;-76
2022/04/07 13:00:57;;;;;;;25.63;5.10;;;;;;;;;;5021363;28;20030;-75
2022/04/07 13:03:22;;;;;;;41.22;6.07;;;;;;;;;;5002477;28;20074;-77
2022/04/07 13:05:48;;;;;;;45.25;6.15;;;;;;;;;;4989078;28;20564;-76
2022/04/07 13:08:14;;;;;;;37.33;5.22;;;;;;;;;;5034790;28;20045;-77
2022/04/07 13:10:42;;;;;;;31.95;5.38;;;;;;;;;;5020850;28;20064;-77
2022/04/07 13:13:10;;;;;;;55.90;8.13;;;;;;;;;;5020255;28;20092;-77
2022/04/07 13:15:35;;;;;;;39.28;6.85;;;;;;;;;;5017460;28;20033;-77
2022/04/07 13:18:02;;;;;;;48.80;7.68;;;;;;;;;;5019927;28;20099;-77
2022/04/07 13:20:28;;;;;;;41.97;6.20;;;;;;;;;;5020097;28;20033;-77
2022/04/07 13:22:54;;;;;;;41.72;6.95;;;;;;;;;;5019221;28;20120;-77
2022/04/07 13:25:19;;;;;;;28.45;4.68;;;;;;;;;;5020303;28;20059;-75
2022/04/07 13:27:45;;;;;;;40.10;5.68;;;;;;;;;;5018664;28;20029;-69
2022/04/07 13:30:10;;;;;;;33.47;5.53;;;;;;;;;;5019864;28;20021;-69
2022/04/07 13:32:36;;;;;;;39.70;6.25;;;;;;;;;;5020912;28;20167;-68
2022/04/07 13:35:01;;;;;;;49.95;7.30;;;;;;;;;;5019910;28;20033;-68
2022/04/07 13:37:26;;;;;;;40.92;6.32;;;;;;;;;;5022970;28;20029;-68
2022/04/07 13:39:52;;;;;;;41.92;6.35;;;;;;;;;;5021512;28;20350;-68
2022/04/07 13:42:18;;;;;;;36.63;5.55;;;;;;;;;;5021016;28;20449;-66
2022/04/07 13:44:46;;;;;;;43.05;6.75;;;;;;;;;;5020547;28;20032;-69
2022/04/07 13:47:11;;;;;;;38.75;6.25;;;;;;;;;;5020701;28;20029;-67
2022/04/07 13:49:36;;;;;;;45.65;7.28;;;;;;;;;;5019124;28;20032;-67
2022/04/07 13:52:02;;;;;;;33.92;4.20;;;;;;;;;;5021101;28;20556;-67
2022/04/07 13:54:27;;;;;;;39.33;6.68;;;;;;;;;;5019799;28;20033;-66
2022/04/07 13:56:53;;;;;;;48.50;6.32;;;;;;;;;;5021279;28;20041;-67
2022/04/07 13:59:19;;;;;;;46.97;7.45;;;;;;;;;;5020288;28;20041;-65
2022/04/07 14:01:47;;;;;;;35.38;5.90;;;;;;;;;;5020200;28;20028;-66
2022/04/07 14:04:12;;;;;;;30.42;5.50;;;;;;;;;;5016735;28;20060;-67
2022/04/07 14:06:38;;;;;;;41.75;6.65;;;;;;;;;;5019296;28;20029;-67
2022/04/07 14:09:06;;;;;;;46.38;7.55;;;;;;;;;;5018764;28;20143;-66
2022/04/07 14:11:33;;;;;;;46.05;6.60;;;;;;;;;;5019988;28;20064;-67
2022/04/07 14:14:00;;;;;;;38.42;6.78;;;;;;;;;;5017208;28;20033;-68
2022/04/07 14:16:25;;;;;;;45.92;7.07;;;;;;;;;;5023012;28;20071;-68
2022/04/07 14:18:51;;;;;;;35.05;5.28;;;;;;;;;;5017723;28;20288;-66
2022/04/07 14:21:18;;;;;;;39.22;6.72;;;;;;;;;;5019819;28;20330;-67
2022/04/07 14:23:44;;;;;;;36.88;6.57;;;;;;;;;;5010823;28;20033;-67
2022/04/07 14:26:09;;;;;;;34.83;4.50;;;;;;;;;;5005504;28;20028;-66
2022/04/07 14:28:34;;;;;;;32.75;5.13;;;;;;;;;;5020212;28;20036;-66